Time;durP1;ratioP1;P1;durP2;ratioP2;P2;SDS_P1;SDS_P2;PMS_P1;PMS_P2;Temp;Humidity;BMP_temperature;BMP_pressure;BME280_temperature;BME280_humidity;BME280_pressure;Samples;Min_cycle;Max_cycle;Signal;HPM_P1;HPM_P2
2022/09/20 00:02:16;;;;;;;0.08;0.08;;;;;;;11.57;99.34;102180.41;5014605;28;20066;-74
2022/09/20 00:04:41;;;;;;;0.10;0.10;;;;;;;11.53;99.96;102177.91;5014066;28;20029;-74
2022/09/20 00:07:07;;;;;;;0.10;0.10;;;;;;;11.56;100.00;102187.59;5015369;28;20038;-74
2022/09/20 00:09:32;;;;;;;0.10;0.10;;;;;;;11.60;99.93;102191.00;5012780;28;20026;-74
2022/09/20 00:11:58;;;;;;;0.10;0.10;;;;;;;11.55;99.92;102191.25;5016752;28;20033;-75
2022/09/20 00:14:23;;;;;;;0.10;0.10;;;;;;;11.44;100.00;102194.59;5015967;28;20117;-75
2022/09/20 00:16:49;;;;;;;0.15;0.15;;;;;;;11.49;100.00;102188.97;5015988;28;20036;-74
2022/09/20 00:19:18;;;;;;;0.10;0.10;;;;;;;11.28;100.00;102164.22;5015390;28;20490;-74
2022/09/20 00:21:43;;;;;;;0.10;0.10;;;;;;;11.35;100.00;102187.09;5017225;28;20029;-75
2022/09/20 00:24:09;;;;;;;0.10;0.10;;;;;;;11.27;100.00;102171.41;5012897;28;20033;-74
2022/09/20 00:26:35;;;;;;;0.10;0.10;;;;;;;11.34;100.00;102182.69;4997683;28;20029;-74
2022/09/20 00:29:00;;;;;;;0.10;0.10;;;;;;;11.20;100.00;102168.22;5018327;28;20523;-74
2022/09/20 00:31:25;;;;;;;0.10;0.10;;;;;;;11.33;100.00;102197.94;5020238;28;20068;-74
2022/09/20 00:36:39;;;;;;;0.10;0.10;;;;;;;11.19;100.00;102154.88;5016531;28;20185;-74
2022/09/20 00:39:04;;;;;;;0.10;0.10;;;;;;;11.35;100.00;102181.72;5020124;28;20037;-74
2022/09/20 00:41:30;;;;;;;0.10;0.10;;;;;;;11.43;100.00;102187.47;5021100;28;20074;-74
2022/09/20 00:43:56;;;;;;;0.10;0.10;;;;;;;11.37;100.00;102183.34;5016530;28;20376;-74
2022/09/20 00:46:40;;;;;;;0.10;0.10;;;;;;;11.33;100.00;102183.63;5013644;28;20917;-74
2022/09/20 00:49:16;;;;;;;0.15;0.15;;;;;;;11.40;100.00;102198.41;5016396;28;20041;-74
2022/09/20 00:51:46;;;;;;;0.00;0.00;;;;;;;11.33;100.00;102195.25;5023012;28;20435;-74
2022/09/20 00:54:13;;;;;;;0.03;0.03;;;;;;;11.14;100.00;102165.88;5018018;28;20018;-74
2022/09/20 00:56:40;;;;;;;0.10;0.10;;;;;;;11.04;100.00;102157.50;5017214;28;20083;-74
2022/09/20 00:59:10;;;;;;;0.10;0.10;;;;;;;11.27;100.00;102197.44;5015249;28;20025;-74
2022/09/20 01:01:36;;;;;;;0.10;0.10;;;;;;;11.16;100.00;102187.31;5019798;28;20095;-74
2022/09/20 01:04:02;;;;;;;0.10;0.10;;;;;;;10.97;100.00;102166.03;4998208;28;20029;-74
2022/09/20 01:06:27;;;;;;;0.10;0.10;;;;;;;11.09;100.00;102200.25;5017283;28;20351;-74
2022/09/20 01:08:53;;;;;;;0.10;0.10;;;;;;;11.07;100.00;102199.47;5017343;28;20586;-74
2022/09/20 01:11:19;;;;;;;0.10;0.10;;;;;;;10.94;100.00;102196.63;5016398;28;20033;-74
2022/09/20 01:13:44;;;;;;;0.10;0.10;;;;;;;10.82;100.00;102183.91;5018313;28;20045;-74
2022/09/20 01:16:10;;;;;;;0.10;0.10;;;;;;;10.88;100.00;102195.16;5020723;28;20061;-74
2022/09/20 01:18:36;;;;;;;0.08;0.08;;;;;;;10.83;100.00;102191.00;5005229;28;20029;-74
2022/09/20 01:21:02;;;;;;;0.10;0.10;;;;;;;10.73;100.00;102178.09;5016985;28;20491;-74
2022/09/20 01:24:09;;;;;;;0.10;0.10;;;;;;;10.83;100.00;102207.13;5016198;28;20072;-74
2022/09/20 01:27:13;;;;;;;0.10;0.10;;;;;;;10.88;100.00;102192.47;4983415;28;20049;-74
2022/09/20 01:30:01;;;;;;;0.10;0.10;;;;;;;10.66;100.00;102165.97;5016264;28;20029;-74
2022/09/20 01:32:41;;;;;;;0.10;0.10;;;;;;;10.78;100.00;102192.13;5016618;28;20040;-74
2022/09/20 01:35:07;;;;;;;0.10;0.10;;;;;;;10.67;100.00;102167.72;5015947;28;20025;-74
2022/09/20 01:37:45;;;;;;;0.10;0.10;;;;;;;10.84;100.00;102196.31;5003093;28;20056;-74
2022/09/20 01:40:17;;;;;;;0.10;0.10;;;;;;;10.78;100.00;102178.69;5016457;28;20029;-74
2022/09/20 01:42:53;;;;;;;0.00;0.00;;;;;;;10.92;100.00;102191.34;5015960;28;20048;-74
2022/09/20 01:45:27;;;;;;;0.10;0.10;;;;;;;10.75;100.00;102178.00;5015879;28;20058;-74
2022/09/20 01:47:53;;;;;;;0.00;0.00;;;;;;;10.92;100.00;102195.84;5017860;28;20063;-74
2022/09/20 01:50:34;;;;;;;0.00;0.00;;;;;;;10.97;100.00;102190.22;5015557;28;20120;-74
2022/09/20 01:53:15;;;;;;;0.10;0.10;;;;;;;10.90;100.00;102187.00;5019565;28;20049;-74
2022/09/20 01:55:52;;;;;;;0.10;0.10;;;;;;;10.87;100.00;102196.09;5016647;28;20108;-75
2022/09/20 01:58:46;;;;;;;0.05;0.05;;;;;;;10.88;100.00;102191.59;5014519;28;20501;-75
2022/09/20 02:01:48;;;;;;;0.10;0.10;;;;;;;10.86;100.00;102194.38;5013733;28;20048;-74
2022/09/20 02:04:28;;;;;;;0.10;0.10;;;;;;;10.81;100.00;102201.84;5016771;28;20071;-75
2022/09/20 02:07:21;;;;;;;0.10;0.10;;;;;;;10.83;100.00;102197.25;5017832;28;20037;-74
2022/09/20 02:10:02;;;;;;;0.08;0.08;;;;;;;10.77;100.00;102193.09;5019131;28;20033;-74
2022/09/20 02:12:37;;;;;;;0.10;0.10;;;;;;;10.79;100.00;102199.22;5019018;28;20035;-74
2022/09/20 02:15:22;;;;;;;0.10;0.10;;;;;;;10.77;100.00;102195.75;5020068;28;20026;-75
2022/09/20 02:18:26;;;;;;;0.10;0.10;;;;;;;10.84;100.00;102195.41;5016522;28;20045;-74
2022/09/20 02:20:55;;;;;;;0.10;0.10;;;;;;;10.74;100.00;102173.59;5012747;28;20032;-75
2022/09/20 02:23:40;;;;;;;0.10;0.10;;;;;;;10.86;100.00;102201.56;5016180;28;20029;-75
2022/09/20 02:26:10;;;;;;;;;;;;;;;10.77;100.00;102192.22;5018115;28;20035;-75
2022/09/20 02:28:55;;;;;;;0.10;0.10;;;;;;;10.68;100.00;102165.88;5014469;28;19991;-75
2022/09/20 02:31:42;;;;;;;0.10;0.10;;;;;;;10.60;100.00;102152.91;5013390;28;20029;-74
2022/09/20 02:34:36;;;;;;;0.10;0.10;;;;;;;10.79;100.00;102188.50;5016103;28;20029;-75
2022/09/20 02:37:14;;;;;;;0.10;0.10;;;;;;;10.52;100.00;102137.22;5000761;28;20072;-75
2022/09/20 02:39:52;;;;;;;0.10;0.10;;;;;;;10.78;100.00;102188.59;5014478;28;20025;-75
2022/09/20 02:42:17;;;;;;;0.10;0.10;;;;;;;10.79;100.00;102188.50;5017102;28;20040;-75
2022/09/20 02:44:45;;;;;;;0.10;0.10;;;;;;;10.78;100.00;102186.75;5014570;28;20029;-75
2022/09/20 02:47:37;;;;;;;0.10;0.10;;;;;;;10.74;100.00;102178.97;5002356;28;20116;-75
2022/09/20 02:50:39;;;;;;;0.10;0.10;;;;;;;10.79;100.00;102180.44;5016248;28;20022;-75
2022/09/20 02:53:36;;;;;;;0.10;0.10;;;;;;;10.84;100.00;102179.31;5015815;28;20640;-75
2022/09/20 02:56:39;;;;;;;0.03;0.03;;;;;;;10.85;100.00;102184.59;5021496;28;20017;-75
2022/09/20 02:59:30;;;;;;;0.10;0.10;;;;;;;10.83;100.00;102178.44;4997061;28;20049;-75
2022/09/20 03:02:10;;;;;;;0.10;0.10;;;;;;;10.64;100.00;102160.69;5020405;28;20475;-76
2022/09/20 03:04:51;;;;;;;0.10;0.10;;;;;;;10.83;100.00;102197.25;5004768;28;20034;-75
2022/09/20 03:07:38;;;;;;;0.10;0.10;;;;;;;10.68;100.00;102182.88;5022326;28;20057;-75
2022/09/20 03:10:28;;;;;;;0.10;0.10;;;;;;;10.76;100.00;102193.19;5015611;28;20026;-75
2022/09/20 03:13:20;;;;;;;0.10;0.10;;;;;;;10.77;100.00;102190.41;5021786;28;20075;-75
2022/09/20 03:15:51;;;;;;;0.10;0.10;;;;;;;10.76;100.00;102191.34;5021371;28;20112;-75
2022/09/20 03:18:38;;;;;;;0.10;0.10;;;;;;;10.77;100.00;102184.16;5021899;28;20341;-75
2022/09/20 03:21:28;;;;;;;0.00;0.00;;;;;;;10.74;100.00;102189.72;5020424;28;20439;-75
2022/09/20 03:23:59;;;;;;;0.10;0.10;;;;;;;10.82;100.00;102184.78;5019210;28;20369;-75
2022/09/20 03:26:59;;;;;;;0.08;0.08;;;;;;;10.61;100.00;102158.16;5016966;28;20064;-75
2022/09/20 03:29:42;;;;;;;0.10;0.10;;;;;;;10.66;100.00;102165.97;5007729;28;20041;-75
2022/09/20 03:32:33;;;;;;;0.10;0.10;;;;;;;10.77;100.00;102184.16;5018543;28;20471;-75
2022/09/20 03:35:15;;;;;;;0.10;0.10;;;;;;;10.81;100.00;102188.41;5019014;28;20043;-75
2022/09/20 03:37:55;;;;;;;0.10;0.10;;;;;;;10.60;100.00;102177.06;5018000;28;20036;-75
2022/09/20 03:40:39;;;;;;;0.10;0.10;;;;;;;10.74;100.00;102195.09;5016992;28;20160;-75
2022/09/20 03:43:36;;;;;;;0.00;0.00;;;;;;;10.69;100.00;102197.16;5020320;28;20543;-75
2022/09/20 03:46:26;;;;;;;0.10;0.10;;;;;;;10.67;100.00;102199.06;5007318;28;20128;-75
2022/09/20 03:49:03;;;;;;;0.10;0.10;;;;;;;10.62;100.00;102192.13;5010732;28;20041;-75
2022/09/20 03:51:44;;;;;;;0.10;0.10;;;;;;;10.53;100.00;102183.72;5026264;28;20050;-75
2022/09/20 03:54:29;;;;;;;0.10;0.10;;;;;;;10.59;100.00;102191.44;5023497;28;20113;-75
2022/09/20 03:57:10;;;;;;;0.10;0.10;;;;;;;10.57;100.00;102196.91;5008724;28;20040;-75
2022/09/20 04:00:03;;;;;;;0.00;0.00;;;;;;;10.64;100.00;102200.13;5027071;28;20036;-74
2022/09/20 04:02:37;;;;;;;0.10;0.10;;;;;;;10.67;100.00;102199.06;5022610;28;20030;-75
2022/09/20 04:05:15;;;;;;;0.00;0.00;;;;;;;10.71;100.00;102196.13;5023569;28;20040;-75
2022/09/20 04:08:05;;;;;;;0.10;0.10;;;;;;;10.70;100.00;102191.72;5018575;28;20060;-75
2022/09/20 04:10:52;;;;;;;0.10;0.10;;;;;;;10.71;100.00;102201.50;5008882;28;20025;-75
2022/09/20 04:13:29;;;;;;;0.10;0.10;;;;;;;10.46;100.00;102154.53;5023654;28;20107;-74
2022/09/20 04:16:06;;;;;;;0.10;0.10;;;;;;;10.67;100.00;102182.94;5022111;28;20025;-74
2022/09/20 04:18:36;;;;;;;0.10;0.10;;;;;;;10.50;100.00;102171.34;5022442;28;20029;-74
2022/09/20 04:21:13;;;;;;;0.00;0.00;;;;;;;10.48;100.00;102167.88;5026371;28;20032;-74
2022/09/20 04:24:17;;;;;;;0.10;0.10;;;;;;;10.53;100.00;102187.31;5025029;28;20029;-74
2022/09/20 04:27:08;;;;;;;0.10;0.10;;;;;;;10.54;100.00;102191.72;5018282;28;20087;-74
2022/09/20 04:29:48;;;;;;;0.10;0.10;;;;;;;10.37;100.00;102165.78;4979155;28;20033;-74
2022/09/20 04:32:53;;;;;;;0.10;0.10;;;;;;;10.50;100.00;102191.00;5019931;28;20068;-74
2022/09/20 04:38:18;;;;;;;0.10;0.10;;;;;;;10.47;100.00;102193.00;5024190;28;20083;-74
2022/09/20 04:41:02;;;;;;;0.08;0.08;;;;;;;10.47;100.00;102196.53;5026701;28;20408;-74
2022/09/20 04:43:40;;;;;;;0.10;0.10;;;;;;;10.52;100.00;102188.25;5034560;28;20053;-74
2022/09/20 04:46:34;;;;;;;0.10;0.10;;;;;;;10.45;100.00;102202.97;5022509;28;20040;-73
2022/09/20 04:49:03;;;;;;;;;;;;;;;10.36;100.00;102205.16;5021440;28;20030;-79
2022/09/20 04:51:47;;;;;;;0.10;0.10;;;;;;;10.42;100.00;102205.81;5023536;28;19974;-76
2022/09/20 04:54:21;;;;;;;0.10;0.10;;;;;;;10.40;100.00;102208.59;5019083;28;20033;-75
2022/09/20 04:56:56;;;;;;;0.10;0.10;;;;;;;10.32;100.00;102194.69;5017857;28;20030;-77
2022/09/20 04:59:29;;;;;;;0.00;0.00;;;;;;;10.39;100.00;102214.03;5016090;28;20372;-72
2022/09/20 05:02:17;;;;;;;0.10;0.10;;;;;;;10.36;100.00;102215.03;5018020;28;20033;-74
2022/09/20 05:04:59;;;;;;;0.10;0.10;;;;;;;10.31;100.00;102215.31;5017413;28;20040;-70
2022/09/20 05:07:47;;;;;;;0.10;0.10;;;;;;;10.26;100.00;102216.50;5019006;28;20049;-73
2022/09/20 05:10:45;;;;;;;0.10;0.10;;;;;;;10.23;100.00;102217.53;5018648;28;20648;-75
2022/09/20 05:13:22;;;;;;;0.10;0.10;;;;;;;10.17;100.00;102224.13;4987215;28;20432;-76
2022/09/20 05:16:00;;;;;;;0.10;0.10;;;;;;;10.14;100.00;102221.59;5015723;28;20080;-76
2022/09/20 05:18:47;;;;;;;0.10;0.10;;;;;;;10.04;100.00;102199.75;5004885;28;20124;-76
2022/09/20 05:21:42;;;;;;;0.10;0.10;;;;;;;9.99;100.00;102212.53;5042067;28;20032;-76
2022/09/20 05:24:33;;;;;;;0.10;0.10;;;;;;;9.84;100.00;102218.72;5022962;28;20029;-76
2022/09/20 05:27:22;;;;;;;0.10;0.10;;;;;;;9.73;100.00;102220.16;5028713;28;20068;-76
2022/09/20 05:30:05;;;;;;;0.00;0.00;;;;;;;9.51;100.00;102203.44;5024719;28;20029;-76
2022/09/20 05:32:44;;;;;;;0.10;0.10;;;;;;;9.51;100.00;102222.22;5005535;28;20032;-76
2022/09/20 05:35:18;;;;;;;0.10;0.10;;;;;;;9.58;100.00;102223.63;5020697;28;20467;-76
2022/09/20 05:38:04;;;;;;;0.05;0.05;;;;;;;9.25;100.00;102187.75;5027551;28;20029;-76
2022/09/20 05:41:01;;;;;;;0.00;0.00;;;;;;;9.41;100.00;102233.41;5022318;28;20051;-76
2022/09/20 05:43:34;;;;;;;0.10;0.10;;;;;;;9.25;100.00;102224.41;5023247;28;20128;-77
2022/09/20 05:46:25;;;;;;;0.00;0.00;;;;;;;9.20;100.00;102237.16;5026010;28;20148;-75
2022/09/20 05:48:55;;;;;;;0.10;0.10;;;;;;;9.16;100.00;102236.44;5027546;28;20037;-76
2022/09/20 05:51:59;;;;;;;0.10;0.10;;;;;;;9.13;100.00;102242.81;5006975;28;20029;-76
2022/09/20 05:54:45;;;;;;;0.13;0.13;;;;;;;9.04;100.00;102227.19;5003016;28;20140;-76
2022/09/20 05:57:32;;;;;;;0.05;0.05;;;;;;;9.17;100.00;102246.22;5022707;28;20119;-76
2022/09/20 06:00:09;;;;;;;0.10;0.10;;;;;;;9.13;100.00;102229.44;5025922;28;20480;-76
2022/09/20 06:02:47;;;;;;;0.10;0.10;;;;;;;9.36;100.00;102256.88;5022935;28;20037;-76
2022/09/20 06:05:41;;;;;;;0.10;0.10;;;;;;;9.37;100.00;102250.59;5018514;28;20052;-76
2022/09/20 06:08:11;;;;;;;;;;;;;;;9.36;100.00;102254.22;5024359;28;20442;-76
2022/09/20 06:10:55;;;;;;;0.08;0.08;;;;;;;9.42;100.00;102256.59;5021806;28;19967;-76
2022/09/20 06:13:32;;;;;;;0.00;0.00;;;;;;;9.38;100.00;102227.34;5026978;28;20036;-76
2022/09/20 06:16:00;;;;;;;0.10;0.10;;;;;;;9.60;100.00;102259.28;5022317;28;20050;-76
2022/09/20 06:18:50;;;;;;;0.10;0.10;;;;;;;9.76;100.00;102259.34;5023281;28;20063;-76
2022/09/20 06:21:32;;;;;;;0.10;0.10;;;;;;;9.88;100.00;102248.00;5025386;28;20052;-76
2022/09/20 06:23:59;;;;;;;0.10;0.10;;;;;;;10.05;100.00;102249.78;5018977;28;20345;-76
2022/09/20 06:26:28;;;;;;;0.10;0.10;;;;;;;10.30;100.00;102261.00;5005953;28;20028;-77
2022/09/20 06:28:57;;;;;;;0.10;0.10;;;;;;;10.24;100.00;102224.66;5021342;28;20545;-78
2022/09/20 06:31:22;;;;;;;0.10;0.10;;;;;;;10.53;100.00;102237.44;5007443;28;20029;-76
2022/09/20 06:33:57;;;;;;;0.10;0.10;;;;;;;10.84;100.00;102259.91;5003598;28;20525;-76
2022/09/20 06:42:17;;;;;;;0.10;0.10;;;;;;;11.13;100.00;102257.38;5019547;28;20064;-76
2022/09/20 06:44:42;;;;;;;0.00;0.00;;;;;;;11.12;100.00;102245.78;5023089;28;20120;-76
2022/09/20 06:47:12;;;;;;;0.10;0.10;;;;;;;11.33;100.00;102258.91;5023411;28;20033;-76
2022/09/20 06:49:40;;;;;;;0.10;0.10;;;;;;;11.30;100.00;102248.34;5008261;28;20022;-77
2022/09/20 06:52:06;;;;;;;0.20;0.20;;;;;;;11.40;100.00;102263.84;5026810;28;20033;-80
2022/09/20 06:54:31;;;;;;;0.10;0.10;;;;;;;11.47;100.00;102263.50;5024699;28;20021;-77
2022/09/20 06:56:57;;;;;;;0.10;0.10;;;;;;;11.38;100.00;102268.44;5023514;28;20029;-75
2022/09/20 06:59:23;;;;;;;0.10;0.10;;;;;;;11.44;100.00;102274.44;5011082;28;20033;-76
2022/09/20 07:01:48;;;;;;;0.10;0.10;;;;;;;11.44;100.00;102269.03;5018781;28;20056;-72
2022/09/20 07:04:13;;;;;;;0.10;0.10;;;;;;;11.41;100.00;102270.06;5008797;28;20053;-72
2022/09/20 07:06:39;;;;;;;0.10;0.10;;;;;;;11.35;100.00;102263.25;5027372;28;20030;-72
2022/09/20 07:09:05;;;;;;;0.10;0.10;;;;;;;11.55;100.00;102278.22;5025037;28;20233;-67
2022/09/20 07:11:33;;;;;;;0.00;0.00;;;;;;;11.58;100.00;102279.00;5030730;28;20067;-73
2022/09/20 07:13:59;;;;;;;0.10;0.10;;;;;;;11.72;100.00;102280.88;5028220;28;20053;-72
2022/09/20 07:16:25;;;;;;;0.10;0.10;;;;;;;11.79;100.00;102266.06;5029476;28;20045;-73
2022/09/20 07:18:55;;;;;;;0.10;0.10;;;;;;;11.99;100.00;102283.72;5026319;28;20033;-72
2022/09/20 07:21:20;;;;;;;0.05;0.05;;;;;;;12.02;100.00;102278.16;5018330;28;20025;-72
2022/09/20 07:23:47;;;;;;;0.10;0.10;;;;;;;12.15;100.00;102281.84;5011372;28;20025;-73
2022/09/20 07:26:25;;;;;;;0.10;0.10;;;;;;;12.26;100.00;102283.88;5006894;28;20033;-73
2022/09/20 07:28:50;;;;;;;0.00;0.00;;;;;;;12.33;100.00;102275.38;5043009;28;20108;-74
2022/09/20 07:31:21;;;;;;;0.10;0.10;;;;;;;12.51;100.00;102290.41;5023476;28;20148;-74
2022/09/20 07:33:47;;;;;;;0.00;0.00;;;;;;;12.56;100.00;102268.56;5023640;28;20033;-72
2022/09/20 07:36:12;;;;;;;0.00;0.00;;;;;;;12.75;99.15;102289.81;5018536;28;20071;-75
2022/09/20 07:38:39;;;;;;;0.10;0.10;;;;;;;12.80;98.98;102266.13;5025769;28;20048;-74
2022/09/20 07:41:04;;;;;;;0.10;0.10;;;;;;;12.98;99.99;102255.97;5006027;28;20031;-72
2022/09/20 07:43:30;;;;;;;0.10;0.10;;;;;;;13.33;98.43;102295.94;5016353;28;20041;-73
2022/09/20 07:45:58;;;;;;;0.05;0.05;;;;;;;13.45;94.12;102298.81;5026160;28;20041;-74
2022/09/20 07:48:29;;;;;;;0.00;0.00;;;;;;;13.49;95.61;102267.97;5016316;28;20064;-74
2022/09/20 07:51:06;;;;;;;0.00;0.00;;;;;;;13.69;94.80;102300.81;5027545;28;20459;-74
2022/09/20 07:53:31;;;;;;;0.00;0.00;;;;;;;13.84;94.23;102301.63;5026163;28;20034;-70
2022/09/20 07:56:11;;;;;;;0.10;0.10;;;;;;;13.84;93.18;102296.22;5022597;28;20518;-75
2022/09/20 07:58:37;;;;;;;0.05;0.05;;;;;;;13.82;91.80;102295.47;5016109;28;20029;-74
2022/09/20 08:01:08;;;;;;;0.00;0.00;;;;;;;13.96;93.10;102303.44;5017524;28;20021;-75
2022/09/20 08:03:34;;;;;;;0.10;0.10;;;;;;;14.08;92.87;102308.03;5026738;28;20060;-75
2022/09/20 08:06:07;;;;;;;0.00;0.00;;;;;;;13.87;90.46;102294.16;5025743;28;20065;-74
2022/09/20 08:08:35;;;;;;;0.00;0.00;;;;;;;14.00;89.17;102309.53;5008361;28;20068;-75
2022/09/20 08:11:04;;;;;;;0.10;0.10;;;;;;;14.06;90.14;102303.69;5018462;28;20062;-78
2022/09/20 08:13:29;;;;;;;0.03;0.03;;;;;;;14.14;89.96;102300.47;4998352;28;20025;-75
2022/09/20 08:16:06;;;;;;;0.00;0.00;;;;;;;14.33;88.36;102306.31;5021150;28;20028;-74
2022/09/20 08:18:33;;;;;;;0.10;0.10;;;;;;;14.44;87.41;102312.75;5027066;28;20056;-75
2022/09/20 08:21:17;;;;;;;0.00;0.00;;;;;;;14.21;85.25;102294.53;5017721;28;20034;-75
2022/09/20 08:23:45;;;;;;;0.00;0.00;;;;;;;14.54;86.43;102303.03;4997848;28;20036;-74
2022/09/20 08:26:12;;;;;;;0.00;0.00;;;;;;;14.57;85.62;102315.47;5016797;28;20034;-76
2022/09/20 08:28:39;;;;;;;0.10;0.10;;;;;;;14.59;86.07;102286.47;5022131;28;20025;-75
2022/09/20 08:31:18;;;;;;;0.08;0.08;;;;;;;14.70;84.84;102325.31;5021308;28;20476;-75
2022/09/20 08:33:44;;;;;;;0.10;0.10;;;;;;;14.55;83.44;102307.47;5020771;28;20029;-75
2022/09/20 08:36:12;;;;;;;0.10;0.10;;;;;;;14.57;83.32;102305.53;5004086;28;20029;-72
2022/09/20 08:38:37;;;;;;;0.00;0.00;;;;;;;14.74;81.77;102322.38;5017139;28;20025;-72
2022/09/20 08:41:06;;;;;;;0.10;0.10;;;;;;;14.81;82.31;102324.56;5021786;28;20036;-74
2022/09/20 08:43:38;;;;;;;0.00;0.00;;;;;;;15.05;83.47;102325.56;5005086;28;20025;-74
2022/09/20 08:46:04;;;;;;;0.10;0.10;;;;;;;15.10;80.38;102324.25;5032427;28;20030;-74
2022/09/20 08:48:32;;;;;;;0.00;0.00;;;;;;;15.16;79.28;102331.06;5023947;28;20108;-74
2022/09/20 08:50:58;;;;;;;0.10;0.10;;;;;;;15.22;79.56;102310.81;5024378;28;20032;-74
2022/09/20 08:53:27;;;;;;;0.00;0.00;;;;;;;15.28;78.72;102311.19;5029217;28;20032;-76
2022/09/20 08:55:52;;;;;;;0.05;0.05;;;;;;;15.44;78.15;102321.75;5023464;28;20029;-74
2022/09/20 08:58:18;;;;;;;0.00;0.00;;;;;;;15.64;76.48;102334.75;5024807;28;20044;-74
2022/09/20 09:00:45;;;;;;;0.00;0.00;;;;;;;15.97;78.46;102334.03;5028736;28;20448;-75
2022/09/20 09:03:12;;;;;;;0.00;0.00;;;;;;;16.25;79.35;102341.88;5020288;28;20048;-74
2022/09/20 09:05:43;;;;;;;0.10;0.10;;;;;;;16.28;75.31;102342.50;5022363;28;20507;-75
2022/09/20 09:08:15;;;;;;;0.00;0.00;;;;;;;16.10;76.56;102344.78;5000859;28;20427;-75
2022/09/20 09:10:42;;;;;;;0.00;0.00;;;;;;;15.97;77.50;102349.44;5022262;28;20488;-74
2022/09/20 09:13:13;;;;;;;0.00;0.00;;;;;;;15.85;79.60;102352.06;5025678;28;20029;-74
2022/09/20 09:15:40;;;;;;;0.10;0.10;;;;;;;15.71;79.07;102346.84;5023716;28;20496;-74
2022/09/20 09:18:08;;;;;;;0.00;0.00;;;;;;;15.66;79.97;102347.19;5022583;28;20060;-75
2022/09/20 09:20:40;;;;;;;0.00;0.00;;;;;;;15.44;80.82;102315.47;5010870;28;20029;-74
2022/09/20 09:23:07;;;;;;;0.00;0.00;;;;;;;15.46;78.78;102327.06;5039382;28;20030;-74
2022/09/20 09:25:38;;;;;;;0.03;0.03;;;;;;;15.44;77.68;102324.44;5023956;28;20041;-74
2022/09/20 09:28:11;;;;;;;0.00;0.00;;;;;;;15.53;76.65;102349.94;5024132;28;20083;-75
2022/09/20 09:30:39;;;;;;;0.00;0.00;;;;;;;15.37;76.51;102352.94;5009048;28;20029;-74
2022/09/20 09:33:14;;;;;;;0.10;0.10;;;;;;;15.42;77.43;102350.75;5028552;28;20065;-72
2022/09/20 09:35:39;;;;;;;0.00;0.00;;;;;;;15.32;77.71;102346.16;5027366;28;20112;-71
2022/09/20 09:38:16;;;;;;;0.00;0.00;;;;;;;15.12;77.36;102334.97;5024191;28;20108;-71
2022/09/20 09:40:49;;;;;;;0.00;0.00;;;;;;;15.13;77.48;102351.06;5020823;28;20026;-72
2022/09/20 09:43:22;;;;;;;0.10;0.10;;;;;;;15.20;78.55;102365.03;5008594;28;20037;-72
2022/09/20 09:45:48;;;;;;;0.00;0.00;;;;;;;15.22;78.17;102363.09;5024653;28;20021;-72
2022/09/20 09:48:31;;;;;;;0.00;0.00;;;;;;;15.21;76.95;102350.53;5005840;28;20032;-72
2022/09/20 09:51:15;;;;;;;0.00;0.00;;;;;;;15.34;77.46;102365.84;5023821;28;20068;-72
2022/09/20 09:53:41;;;;;;;0.00;0.00;;;;;;;15.31;77.54;102369.66;5023849;28;20116;-72
2022/09/20 09:56:10;;;;;;;0.10;0.10;;;;;;;15.26;77.04;102369.13;5028783;28;20044;-72
2022/09/20 09:59:00;;;;;;;0.00;0.00;;;;;;;15.17;78.76;102375.19;5025635;28;20116;-71
2022/09/20 10:01:38;;;;;;;0.00;0.00;;;;;;;15.19;77.93;102371.44;5021507;28;20044;-71
2022/09/20 10:04:42;;;;;;;0.00;0.00;;;;;;;15.28;78.61;102380.69;5042842;28;20040;-71
2022/09/20 10:07:18;;;;;;;0.00;0.00;;;;;;;15.39;77.70;102379.91;4934285;29;20050;-71
2022/09/20 10:10:34;;;;;;;0.00;0.00;;;;;;;15.44;77.30;102383.13;4936974;29;20031;-71
2022/09/20 10:13:13;;;;;;;0.00;0.00;;;;;;;15.42;77.62;102376.97;4966355;28;20496;-72
2022/09/20 10:15:55;;;;;;;0.00;0.00;;;;;;;15.27;78.36;102371.69;5022293;28;20472;-72
2022/09/20 10:18:41;;;;;;;0.00;0.00;;;;;;;15.15;78.01;102372.63;5022750;28;20025;-72
2022/09/20 10:21:40;;;;;;;0.00;0.00;;;;;;;15.09;78.23;102365.81;5025291;28;20029;-72
2022/09/20 10:24:30;;;;;;;0.00;0.00;;;;;;;15.09;78.99;102365.81;5029025;28;20021;-72
2022/09/20 10:27:05;;;;;;;0.00;0.00;;;;;;;15.32;79.42;102367.78;5019733;28;20058;-72
2022/09/20 10:30:09;;;;;;;0.00;0.00;;;;;;;15.49;79.09;102363.84;5027775;28;20025;-72
2022/09/20 10:32:54;;;;;;;0.10;0.10;;;;;;;15.73;77.14;102366.56;5023705;28;20021;-72
2022/09/20 10:35:38;;;;;;;0.00;0.00;;;;;;;16.08;77.84;102352.16;5022322;28;20519;-71
2022/09/20 10:38:26;;;;;;;0.10;0.10;;;;;;;16.30;74.30;102356.78;5028340;28;20656;-72
2022/09/20 10:44:17;;;;;;;0.00;0.00;;;;;;;16.77;69.53;102353.13;5013934;28;20793;-72
2022/09/20 10:47:01;;;;;;;0.00;0.00;;;;;;;17.32;71.02;102353.22;5025991;28;20030;-72
2022/09/20 10:50:03;;;;;;;0.00;0.00;;;;;;;17.48;65.02;102355.50;5029119;28;20044;-74
2022/09/20 10:52:35;;;;;;;0.00;0.00;;;;;;;17.50;65.14;102363.53;5010460;28;20046;-75
2022/09/20 10:55:32;;;;;;;0.00;0.00;;;;;;;17.66;63.58;102331.38;5025584;28;20463;-76
2022/09/20 10:58:23;;;;;;;0.00;0.00;;;;;;;19.23;59.76;102357.75;5021598;28;20048;-73
2022/09/20 11:01:00;;;;;;;0.00;0.00;;;;;;;19.20;56.67;102330.81;5017682;28;20104;-74
2022/09/20 11:03:51;;;;;;;0.00;0.00;;;;;;;19.08;58.06;102341.81;5016265;28;20072;-73
2022/09/20 11:06:20;;;;;;;0.00;0.00;;;;;;;18.75;59.09;102354.69;5021755;28;20099;-74
2022/09/20 11:08:49;;;;;;;0.00;0.00;;;;;;;18.65;60.84;102360.09;5028098;28;20037;-73
2022/09/20 11:11:34;;;;;;;0.00;0.00;;;;;;;18.42;60.53;102354.84;5023202;28;20028;-74
2022/09/20 11:14:12;;;;;;;0.00;0.00;;;;;;;18.03;61.95;102356.44;5022498;28;20030;-76
2022/09/20 11:16:44;;;;;;;0.00;0.00;;;;;;;17.72;60.95;102349.03;5023320;28;20108;-74
2022/09/20 11:19:33;;;;;;;0.00;0.00;;;;;;;17.33;61.20;102370.38;5024200;28;20496;-77
2022/09/20 11:22:12;;;;;;;0.00;0.00;;;;;;;17.08;64.03;102340.66;5007355;28;20124;-74
2022/09/20 11:24:49;;;;;;;0.00;0.00;;;;;;;17.03;62.69;102331.19;5020691;28;20459;-74
2022/09/20 11:27:44;;;;;;;0.00;0.00;;;;;;;17.17;60.25;102362.63;5017977;28;20033;-74
2022/09/20 11:30:18;;;;;;;0.00;0.00;;;;;;;17.15;58.60;102367.31;4986520;28;20038;-74
2022/09/20 11:32:59;;;;;;;0.00;0.00;;;;;;;17.27;59.44;102349.16;5020761;28;20031;-74
2022/09/20 11:35:37;;;;;;;0.00;0.00;;;;;;;17.28;61.19;102376.19;5030670;28;20033;-75
2022/09/20 11:38:24;;;;;;;0.00;0.00;;;;;;;17.00;62.25;102373.00;5016685;28;20033;-72
2022/09/20 11:41:15;;;;;;;0.08;0.08;;;;;;;16.85;60.95;102375.09;5019691;28;20030;-74
2022/09/20 11:43:44;;;;;;;0.00;0.00;;;;;;;16.74;60.74;102350.66;5020704;28;20033;-75
2022/09/20 11:46:13;;;;;;;0.08;0.08;;;;;;;17.06;62.60;102367.09;5022638;28;20021;-74
2022/09/20 11:48:42;;;;;;;0.00;0.00;;;;;;;17.34;61.07;102370.25;5007957;28;20029;-74
2022/09/20 11:51:32;;;;;;;0.00;0.00;;;;;;;17.76;57.01;102355.91;5019447;28;20116;-75
2022/09/20 11:54:05;;;;;;;0.05;0.05;;;;;;;17.95;58.38;102351.63;5016157;28;20049;-74
2022/09/20 11:56:32;;;;;;;0.00;0.00;;;;;;;17.96;56.13;102356.09;5037011;28;20353;-74
2022/09/20 11:59:00;;;;;;;0.00;0.00;;;;;;;17.73;55.59;102371.59;5022554;28;20286;-75
2022/09/20 12:01:37;;;;;;;0.00;0.00;;;;;;;17.36;53.66;102362.81;5016796;28;20047;-76
2022/09/20 12:04:23;;;;;;;0.00;0.00;;;;;;;17.26;53.89;102359.16;5025831;28;20060;-76
2022/09/20 12:06:58;;;;;;;0.00;0.00;;;;;;;17.14;57.39;102343.88;5001936;28;20033;-75
2022/09/20 12:09:27;;;;;;;0.00;0.00;;;;;;;17.34;58.42;102345.81;5009278;28;20034;-74
2022/09/20 12:11:53;;;;;;;0.00;0.00;;;;;;;17.50;55.87;102366.25;5008890;28;20029;-73
2022/09/20 12:14:25;;;;;;;0.00;0.00;;;;;;;18.10;56.18;102363.09;5025148;28;20040;-72
2022/09/20 12:16:50;;;;;;;0.00;0.00;;;;;;;18.16;56.40;102351.66;5020422;28;20021;-72
2022/09/20 12:19:31;;;;;;;0.00;0.00;;;;;;;18.34;55.65;102349.19;5029480;28;20021;-72
2022/09/20 12:21:56;;;;;;;0.00;0.00;;;;;;;18.47;54.94;102353.56;5026240;28;20033;-72